Nearby METAR Reports

 

KSJC - San Jose, California, USA
Distance from station: NE 9mi, 14km
Updated: 11,29/2020 4:53am
Clear
Clear
 Wind from SW
Wind: SW 3 mph , 6 km/h
Temperature: 41°F , 5°C
Dew Point: 30°F , -1°C
Humidity: 66%
Barometer: 30.19 inHg , 1022.4 hPa
Clouds: Clear
Visibility: 10 miles , 16 km
2020/11/29 09:53 KSJC 290953Z AUTO 22003KT 10SM CLR 05/M01 A3019 RMK AO2 SLP222 T00501006
KNUQ - Moffett Nas/Mtn, California, USA
Distance from station: N 9mi, 14km
Updated: 11,15/2020 5:00am
NOT Current
Clear
Clear
 Wind from calm
Wind: Calm
Temperature: 43°F , 6°C
Dew Point: 41°F , 5°C
Humidity: 93%
Barometer: 30.28 inHg , 1025.4 hPa
Clouds: Clear
Visibility: 10 miles , 16 km
2020/11/15 10:00 KNUQ 151000Z AUTO 00000KT 10SM CLR 06/05 A3028 RMK AO2
KPAO - Palo Alto, California, USA
Distance from station: NNW 14mi, 23km
Updated: 11,28/2020 6:47pm
NOT Current
Clear
Clear
 Wind from NW
Wind: NW 8 mph , 13 km/h
Temperature: 61°F , 16°C
Dew Point: 36°F , 2°C
Humidity: 39%
Barometer: 30.19 inHg , 1022.4 hPa
Clouds: Clear
Visibility: 10 miles , 16 km
2020/11/28 23:47 KPAO 282347Z 31007KT 10SM SKC 16/02 A3019
 
KRHV - San Jose/Reid, California, USA
Distance from station: ENE 12mi, 19km
Updated: 11,29/2020 12:50am
NOT Current
Clear
Clear
 Wind from calm
Wind: Calm
Temperature: 45°F , 7°C
Dew Point: 34°F , 1°C
Humidity: 66%
Barometer: 30.20 inHg , 1022.7 hPa
Clouds: Clear
Visibility: 10 miles , 16 km
2020/11/29 05:50 KRHV 290550Z 00000KT 10SM SKC 07/01 A3020 RMK LAST
KOAK - Oakland, California, USA
Distance from station: NNW 31mi, 50km
Updated: 11,29/2020 4:53am
Few Clouds
Few Clouds
 Wind from NE
Wind: NE 3 mph , 6 km/h
Temperature: 45°F , 7°C
Dew Point: 34°F , 1°C
Humidity: 66%
Barometer: 30.21 inHg , 1023 hPa
Clouds: Few Clouds
Visibility: 10 miles , 16 km
Cloud details: Few Clouds 25000 ft
2020/11/29 09:53 KOAK 290953Z 05003KT 10SM FEW250 07/01 A3021 RMK AO2 SLP227 T00670006
KSQL - San Carlos Airpo, California, USA
Distance from station: NW 21mi, 34km
Updated: 11,29/2020 5:15am
Clear
Clear
 Wind from calm
Wind: Calm
Temperature: 41°F , 5°C
Dew Point: 34°F , 1°C
Humidity: 76%
Barometer: 30.21 inHg , 1023 hPa
Clouds: Clear
Visibility: 10 miles , 16 km
2020/11/29 10:15 KSQL 291015Z AUTO 00000KT 10SM CLR 05/01 A3021 RMK AO2
 
KSFO - San Francisco, California, USA
Distance from station: NW 30mi, 49km
Updated: 11,29/2020 4:56am
Clear
Clear
 Wind from WNW
Wind: WNW 3 mph , 6 km/h
Temperature: 45°F , 7°C
Dew Point: 36°F , 2°C
Humidity: 71%
Barometer: 30.19 inHg , 1022.4 hPa
Clouds: Clear
Visibility: 10 miles , 16 km
2020/11/29 09:56 KSFO 290956Z 29003KT 10SM CLR 07/02 A3019 RMK AO2 SLP224 T00670022
KE16 - San Martin, California, USA
Distance from station: ESE 27mi, 43km
Updated: 11,29/2020 5:15am
Clear
Clear
 Wind from calm
Wind: Calm
Temperature: 34°F , 1°C
Dew Point: 32°F , 0°C
Humidity: 93%
Barometer: 30.21 inHg , 1023 hPa
Clouds: Clear
Visibility: 10 miles , 16 km
2020/11/29 10:15 KE16 291015Z AUTO 00000KT 10SM CLR 01/00 A3021 RMK AO2
KWVI - Watsonville, California, USA
Distance from station: SSE 27mi, 44km
Updated: 11,29/2020 4:53am
Clear
Clear
 Wind from NW
Wind: NW 5 mph , 7 km/h
Temperature: 41°F , 5°C
Wind Chill: 38°F , 3°C
Dew Point: 34°F , 1°C
Humidity: 76%
Barometer: 30.18 inHg , 1022 hPa
Clouds: Clear
Visibility: 10 miles , 16 km
2020/11/29 09:53 KWVI 290953Z AUTO 32004KT 10SM CLR 05/01 A3018 RMK AO2 SLP219 T00500006
 
KHAF - Half Moon Bay, California, USA
Distance from station: WNW 31mi, 50km
Updated: 11,29/2020 5:15am
Clear
Clear
 Wind from calm
Wind: Calm
Temperature: 37°F , 3°C
Dew Point: 32°F , 0°C
Humidity: 81%
Barometer: 30.18 inHg , 1022 hPa
Clouds: Clear
Visibility: 10 miles , 16 km
2020/11/29 10:15 KHAF 291015Z AUTO 00000KT 10SM CLR 03/00 A3018 RMK AO2
KHWD - Hayward, California, USA
Distance from station: N 28mi, 44km
Updated: 11,29/2020 4:54am
Clear
Clear
 Wind from calm
Wind: Calm
Temperature: 45°F , 7°C
Dew Point: 30°F , -1°C
Humidity: 57%
Barometer: 30.19 inHg , 1022.4 hPa
Clouds: Clear
Visibility: 10 miles , 16 km
2020/11/29 09:54 KHWD 290954Z 00000KT 10SM CLR 07/M01 A3019 RMK AO2 SLP232 T00671011
KLVK - Livermore, California, USA
Distance from station: NNE 31mi, 51km
Updated: 11,29/2020 4:53am
Clear
Clear
 Wind from E
Wind: E 3 mph , 6 km/h
Temperature: 34°F , 1°C
Dew Point: 27°F , -3°C
Humidity: 75%
Barometer: 30.19 inHg , 1022.4 hPa
Clouds: Clear
Visibility: 10 miles , 16 km
2020/11/29 09:53 KLVK 290953Z AUTO 08003KT 10SM CLR 01/M03 A3019 RMK AO2 SLP223 T00111028